sensor_id;sensor_type;location;lat;lon;timestamp;P1;durP1;ratioP1;P2;durP2;ratioP2
13927;SDS011;7036;50.834;4.718;2023-04-03T00:01:47;2.75;;;2.28;;
13927;SDS011;7036;50.834;4.718;2023-04-03T00:04:15;3.25;;;2.47;;
13927;SDS011;7036;50.834;4.718;2023-04-03T00:06:43;3.55;;;2.53;;
13927;SDS011;7036;50.834;4.718;2023-04-03T00:09:12;3.22;;;2.05;;
13927;SDS011;7036;50.834;4.718;2023-04-03T00:11:38;2.90;;;2.43;;
13927;SDS011;7036;50.834;4.718;2023-04-03T00:14:05;2.75;;;2.05;;
13927;SDS011;7036;50.834;4.718;2023-04-03T00:16:32;3.20;;;2.38;;
13927;SDS011;7036;50.834;4.718;2023-04-03T00:19:00;3.25;;;2.50;;
13927;SDS011;7036;50.834;4.718;2023-04-03T00:21:28;2.70;;;2.05;;
13927;SDS011;7036;50.834;4.718;2023-04-03T00:23:56;3.65;;;2.60;;
13927;SDS011;7036;50.834;4.718;2023-04-03T00:26:22;3.37;;;2.33;;
13927;SDS011;7036;50.834;4.718;2023-04-03T00:28:50;2.47;;;2.28;;
13927;SDS011;7036;50.834;4.718;2023-04-03T00:31:18;2.28;;;2.08;;
13927;SDS011;7036;50.834;4.718;2023-04-03T00:33:45;2.40;;;1.98;;
13927;SDS011;7036;50.834;4.718;2023-04-03T00:36:12;2.58;;;2.33;;
13927;SDS011;7036;50.834;4.718;2023-04-03T00:38:40;2.78;;;2.35;;
13927;SDS011;7036;50.834;4.718;2023-04-03T00:41:08;1.95;;;1.85;;
13927;SDS011;7036;50.834;4.718;2023-04-03T00:43:36;2.95;;;2.33;;
13927;SDS011;7036;50.834;4.718;2023-04-03T00:46:04;2.45;;;1.85;;
13927;SDS011;7036;50.834;4.718;2023-04-03T00:48:33;3.67;;;2.22;;
13927;SDS011;7036;50.834;4.718;2023-04-03T00:51:00;2.72;;;2.40;;
13927;SDS011;7036;50.834;4.718;2023-04-03T00:53:37;2.78;;;2.42;;
13927;SDS011;7036;50.834;4.718;2023-04-03T00:56:00;4.40;;;2.60;;
13927;SDS011;7036;50.834;4.718;2023-04-03T00:58:35;2.70;;;2.15;;
13927;SDS011;7036;50.834;4.718;2023-04-03T01:01:00;3.43;;;2.40;;
13927;SDS011;7036;50.834;4.718;2023-04-03T01:03:28;3.08;;;2.25;;
13927;SDS011;7036;50.834;4.718;2023-04-03T01:05:56;2.58;;;2.22;;
13927;SDS011;7036;50.834;4.718;2023-04-03T01:08:24;3.55;;;2.33;;
13927;SDS011;7036;50.834;4.718;2023-04-03T01:10:52;2.45;;;2.25;;
13927;SDS011;7036;50.834;4.718;2023-04-03T01:13:21;2.72;;;2.20;;
13927;SDS011;7036;50.834;4.718;2023-04-03T01:15:52;2.27;;;1.93;;
13927;SDS011;7036;50.834;4.718;2023-04-03T01:18:20;2.15;;;1.95;;
13927;SDS011;7036;50.834;4.718;2023-04-03T01:23:44;4.10;;;2.17;;
13927;SDS011;7036;50.834;4.718;2023-04-03T01:26:10;3.97;;;2.43;;
13927;SDS011;7036;50.834;4.718;2023-04-03T01:28:39;2.08;;;1.95;;
13927;SDS011;7036;50.834;4.718;2023-04-03T01:31:12;2.83;;;2.17;;
13927;SDS011;7036;50.834;4.718;2023-04-03T01:33:38;2.40;;;2.20;;
13927;SDS011;7036;50.834;4.718;2023-04-03T01:36:06;3.75;;;2.05;;
13927;SDS011;7036;50.834;4.718;2023-04-03T01:38:34;3.22;;;1.80;;
13927;SDS011;7036;50.834;4.718;2023-04-03T01:41:02;2.58;;;2.03;;
13927;SDS011;7036;50.834;4.718;2023-04-03T01:43:30;2.08;;;1.90;;
13927;SDS011;7036;50.834;4.718;2023-04-03T01:45:58;2.40;;;2.20;;
13927;SDS011;7036;50.834;4.718;2023-04-03T01:48:26;5.55;;;2.25;;
13927;SDS011;7036;50.834;4.718;2023-04-03T01:50:54;3.30;;;2.15;;
13927;SDS011;7036;50.834;4.718;2023-04-03T01:53:22;4.40;;;2.15;;
13927;SDS011;7036;50.834;4.718;2023-04-03T01:55:49;2.40;;;2.20;;
13927;SDS011;7036;50.834;4.718;2023-04-03T01:58:16;2.30;;;2.10;;
13927;SDS011;7036;50.834;4.718;2023-04-03T02:00:43;2.83;;;2.13;;
13927;SDS011;7036;50.834;4.718;2023-04-03T02:03:12;1.83;;;1.67;;
13927;SDS011;7036;50.834;4.718;2023-04-03T02:05:40;4.07;;;2.10;;
13927;SDS011;7036;50.834;4.718;2023-04-03T02:08:07;2.37;;;2.03;;
13927;SDS011;7036;50.834;4.718;2023-04-03T02:10:34;2.42;;;2.20;;
13927;SDS011;7036;50.834;4.718;2023-04-03T02:13:01;2.08;;;1.90;;
13927;SDS011;7036;50.834;4.718;2023-04-03T02:15:29;4.68;;;2.03;;
13927;SDS011;7036;50.834;4.718;2023-04-03T02:17:56;4.22;;;2.20;;
13927;SDS011;7036;50.834;4.718;2023-04-03T02:20:24;2.70;;;2.05;;
13927;SDS011;7036;50.834;4.718;2023-04-03T02:22:52;3.47;;;2.00;;
13927;SDS011;7036;50.834;4.718;2023-04-03T02:25:20;2.63;;;2.00;;
13927;SDS011;7036;50.834;4.718;2023-04-03T02:27:48;2.83;;;2.35;;
13927;SDS011;7036;50.834;4.718;2023-04-03T02:30:16;2.03;;;1.90;;
13927;SDS011;7036;50.834;4.718;2023-04-03T02:32:44;2.42;;;2.22;;
13927;SDS011;7036;50.834;4.718;2023-04-03T02:35:11;2.35;;;1.90;;
13927;SDS011;7036;50.834;4.718;2023-04-03T02:37:39;2.50;;;2.05;;
13927;SDS011;7036;50.834;4.718;2023-04-03T02:40:06;2.35;;;2.10;;
13927;SDS011;7036;50.834;4.718;2023-04-03T02:42:34;2.80;;;2.38;;
13927;SDS011;7036;50.834;4.718;2023-04-03T02:45:02;2.35;;;1.90;;
13927;SDS011;7036;50.834;4.718;2023-04-03T02:47:30;2.13;;;1.92;;
13927;SDS011;7036;50.834;4.718;2023-04-03T02:49:57;2.38;;;2.17;;
13927;SDS011;7036;50.834;4.718;2023-04-03T02:52:25;3.35;;;2.20;;
13927;SDS011;7036;50.834;4.718;2023-04-03T02:54:53;2.03;;;1.65;;
13927;SDS011;7036;50.834;4.718;2023-04-03T02:57:21;2.40;;;1.95;;
13927;SDS011;7036;50.834;4.718;2023-04-03T02:59:49;1.88;;;1.73;;
13927;SDS011;7036;50.834;4.718;2023-04-03T03:02:17;3.10;;;2.22;;
13927;SDS011;7036;50.834;4.718;2023-04-03T03:04:45;3.03;;;2.13;;
13927;SDS011;7036;50.834;4.718;2023-04-03T03:07:12;2.30;;;2.10;;
13927;SDS011;7036;50.834;4.718;2023-04-03T03:09:40;2.97;;;2.25;;
13927;SDS011;7036;50.834;4.718;2023-04-03T03:12:07;2.13;;;1.83;;
13927;SDS011;7036;50.834;4.718;2023-04-03T03:14:35;3.47;;;2.05;;
13927;SDS011;7036;50.834;4.718;2023-04-03T03:17:03;2.33;;;2.08;;
13927;SDS011;7036;50.834;4.718;2023-04-03T03:19:31;2.20;;;2.00;;
13927;SDS011;7036;50.834;4.718;2023-04-03T03:21:58;3.28;;;2.50;;
13927;SDS011;7036;50.834;4.718;2023-04-03T03:24:26;2.53;;;1.80;;
13927;SDS011;7036;50.834;4.718;2023-04-03T03:26:54;2.13;;;1.90;;
13927;SDS011;7036;50.834;4.718;2023-04-03T03:29:22;2.08;;;1.88;;
13927;SDS011;7036;50.834;4.718;2023-04-03T03:31:51;2.58;;;2.30;;
13927;SDS011;7036;50.834;4.718;2023-04-03T03:34:18;2.05;;;1.77;;
13927;SDS011;7036;50.834;4.718;2023-04-03T03:36:46;2.35;;;1.70;;
13927;SDS011;7036;50.834;4.718;2023-04-03T03:39:14;2.83;;;1.90;;
13927;SDS011;7036;50.834;4.718;2023-04-03T03:41:42;2.28;;;1.90;;
13927;SDS011;7036;50.834;4.718;2023-04-03T03:44:11;2.13;;;1.92;;
13927;SDS011;7036;50.834;4.718;2023-04-03T03:46:39;2.40;;;2.20;;
13927;SDS011;7036;50.834;4.718;2023-04-03T03:49:05;1.87;;;1.77;;
13927;SDS011;7036;50.834;4.718;2023-04-03T03:51:33;2.33;;;2.13;;
13927;SDS011;7036;50.834;4.718;2023-04-03T03:54:00;1.80;;;1.67;;
13927;SDS011;7036;50.834;4.718;2023-04-03T03:56:28;3.35;;;2.00;;
13927;SDS011;7036;50.834;4.718;2023-04-03T03:58:55;3.10;;;2.22;;
13927;SDS011;7036;50.834;4.718;2023-04-03T04:01:23;2.78;;;2.15;;
13927;SDS011;7036;50.834;4.718;2023-04-03T04:03:50;2.70;;;2.42;;
13927;SDS011;7036;50.834;4.718;2023-04-03T04:06:17;4.07;;;2.60;;
13927;SDS011;7036;50.834;4.718;2023-04-03T04:08:44;2.80;;;2.53;;
13927;SDS011;7036;50.834;4.718;2023-04-03T04:11:12;2.55;;;2.08;;
13927;SDS011;7036;50.834;4.718;2023-04-03T04:13:39;2.60;;;2.10;;
13927;SDS011;7036;50.834;4.718;2023-04-03T04:16:06;3.47;;;2.20;;
13927;SDS011;7036;50.834;4.718;2023-04-03T04:18:34;2.50;;;2.30;;
13927;SDS011;7036;50.834;4.718;2023-04-03T04:21:03;2.88;;;2.20;;
13927;SDS011;7036;50.834;4.718;2023-04-03T04:23:30;2.67;;;1.90;;
13927;SDS011;7036;50.834;4.718;2023-04-03T04:25:58;2.20;;;2.00;;
13927;SDS011;7036;50.834;4.718;2023-04-03T04:28:26;3.13;;;2.22;;
13927;SDS011;7036;50.834;4.718;2023-04-03T04:30:53;3.10;;;2.40;;
13927;SDS011;7036;50.834;4.718;2023-04-03T04:33:21;2.90;;;2.13;;
13927;SDS011;7036;50.834;4.718;2023-04-03T04:35:49;3.63;;;2.20;;
13927;SDS011;7036;50.834;4.718;2023-04-03T04:38:17;2.38;;;2.20;;
13927;SDS011;7036;50.834;4.718;2023-04-03T04:40:45;2.00;;;1.80;;
13927;SDS011;7036;50.834;4.718;2023-04-03T04:43:12;3.42;;;2.20;;
13927;SDS011;7036;50.834;4.718;2023-04-03T04:45:39;3.38;;;2.40;;
13927;SDS011;7036;50.834;4.718;2023-04-03T04:48:06;2.65;;;2.30;;
13927;SDS011;7036;50.834;4.718;2023-04-03T04:50:34;3.42;;;2.05;;
13927;SDS011;7036;50.834;4.718;2023-04-03T04:53:02;3.03;;;2.10;;
13927;SDS011;7036;50.834;4.718;2023-04-03T04:55:31;2.63;;;2.03;;
13927;SDS011;7036;50.834;4.718;2023-04-03T04:57:57;2.67;;;1.90;;
13927;SDS011;7036;50.834;4.718;2023-04-03T05:00:24;4.45;;;2.30;;
13927;SDS011;7036;50.834;4.718;2023-04-03T05:02:52;2.35;;;1.98;;
13927;SDS011;7036;50.834;4.718;2023-04-03T05:05:20;2.60;;;2.22;;
13927;SDS011;7036;50.834;4.718;2023-04-03T05:07:49;3.08;;;2.22;;
13927;SDS011;7036;50.834;4.718;2023-04-03T05:10:16;4.13;;;2.33;;
13927;SDS011;7036;50.834;4.718;2023-04-03T05:12:43;4.28;;;2.50;;
13927;SDS011;7036;50.834;4.718;2023-04-03T05:15:12;2.63;;;2.22;;
13927;SDS011;7036;50.834;4.718;2023-04-03T05:17:38;5.00;;;2.50;;
13927;SDS011;7036;50.834;4.718;2023-04-03T05:20:06;4.82;;;2.40;;
13927;SDS011;7036;50.834;4.718;2023-04-03T05:22:34;2.85;;;2.40;;
13927;SDS011;7036;50.834;4.718;2023-04-03T05:25:01;4.33;;;2.10;;
13927;SDS011;7036;50.834;4.718;2023-04-03T05:27:29;5.43;;;2.53;;
13927;SDS011;7036;50.834;4.718;2023-04-03T05:29:56;4.88;;;2.50;;
13927;SDS011;7036;50.834;4.718;2023-04-03T05:32:24;6.28;;;2.67;;
13927;SDS011;7036;50.834;4.718;2023-04-03T05:34:52;3.63;;;2.17;;
13927;SDS011;7036;50.834;4.718;2023-04-03T05:37:21;3.10;;;2.22;;
13927;SDS011;7036;50.834;4.718;2023-04-03T05:39:49;4.30;;;2.53;;
13927;SDS011;7036;50.834;4.718;2023-04-03T05:42:15;5.63;;;2.50;;
13927;SDS011;7036;50.834;4.718;2023-04-03T05:44:43;5.88;;;2.45;;
13927;SDS011;7036;50.834;4.718;2023-04-03T05:47:11;3.13;;;2.78;;
13927;SDS011;7036;50.834;4.718;2023-04-03T05:49:39;3.92;;;2.40;;
13927;SDS011;7036;50.834;4.718;2023-04-03T05:52:42;3.92;;;2.13;;
13927;SDS011;7036;50.834;4.718;2023-04-03T05:54:53;3.97;;;2.20;;
13927;SDS011;7036;50.834;4.718;2023-04-03T05:57:19;3.77;;;2.63;;
13927;SDS011;7036;50.834;4.718;2023-04-03T05:59:48;3.17;;;2.25;;
13927;SDS011;7036;50.834;4.718;2023-04-03T06:02:19;3.17;;;2.13;;
13927;SDS011;7036;50.834;4.718;2023-04-03T06:04:44;4.37;;;1.93;;
13927;SDS011;7036;50.834;4.718;2023-04-03T06:07:12;2.40;;;2.20;;
13927;SDS011;7036;50.834;4.718;2023-04-03T06:09:39;3.70;;;2.97;;
13927;SDS011;7036;50.834;4.718;2023-04-03T06:12:07;3.08;;;2.35;;
13927;SDS011;7036;50.834;4.718;2023-04-03T06:14:35;2.35;;;2.15;;
13927;SDS011;7036;50.834;4.718;2023-04-03T06:17:03;3.97;;;2.90;;
13927;SDS011;7036;50.834;4.718;2023-04-03T06:19:31;4.20;;;2.58;;
13927;SDS011;7036;50.834;4.718;2023-04-03T06:21:59;2.85;;;2.60;;
13927;SDS011;7036;50.834;4.718;2023-04-03T06:24:27;4.50;;;2.50;;
13927;SDS011;7036;50.834;4.718;2023-04-03T06:26:54;2.90;;;2.70;;
13927;SDS011;7036;50.834;4.718;2023-04-03T06:29:23;3.35;;;2.60;;
13927;SDS011;7036;50.834;4.718;2023-04-03T06:31:51;4.65;;;2.10;;
13927;SDS011;7036;50.834;4.718;2023-04-03T06:34:19;2.58;;;2.33;;
13927;SDS011;7036;50.834;4.718;2023-04-03T06:36:46;2.90;;;2.60;;
13927;SDS011;7036;50.834;4.718;2023-04-03T06:39:14;3.10;;;2.50;;
13927;SDS011;7036;50.834;4.718;2023-04-03T06:41:41;3.20;;;2.60;;
13927;SDS011;7036;50.834;4.718;2023-04-03T06:44:08;2.95;;;2.65;;
13927;SDS011;7036;50.834;4.718;2023-04-03T06:46:36;4.35;;;2.50;;
13927;SDS011;7036;50.834;4.718;2023-04-03T06:49:04;4.72;;;2.60;;
13927;SDS011;7036;50.834;4.718;2023-04-03T06:51:33;3.38;;;2.38;;
13927;SDS011;7036;50.834;4.718;2023-04-03T06:53:59;3.73;;;2.43;;
13927;SDS011;7036;50.834;4.718;2023-04-03T06:56:27;5.78;;;3.00;;
13927;SDS011;7036;50.834;4.718;2023-04-03T06:58:55;2.67;;;2.40;;
13927;SDS011;7036;50.834;4.718;2023-04-03T07:01:24;2.17;;;1.95;;
13927;SDS011;7036;50.834;4.718;2023-04-03T07:03:50;3.08;;;2.40;;
13927;SDS011;7036;50.834;4.718;2023-04-03T07:06:18;2.75;;;2.42;;
13927;SDS011;7036;50.834;4.718;2023-04-03T07:08:45;2.30;;;2.10;;
13927;SDS011;7036;50.834;4.718;2023-04-03T07:11:12;3.72;;;2.75;;
13927;SDS011;7036;50.834;4.718;2023-04-03T07:13:39;3.85;;;2.40;;
13927;SDS011;7036;50.834;4.718;2023-04-03T07:16:07;3.58;;;2.35;;
13927;SDS011;7036;50.834;4.718;2023-04-03T07:18:35;2.53;;;2.33;;
13927;SDS011;7036;50.834;4.718;2023-04-03T07:21:04;3.13;;;2.67;;
13927;SDS011;7036;50.834;4.718;2023-04-03T07:23:30;2.57;;;2.37;;
13927;SDS011;7036;50.834;4.718;2023-04-03T07:25:58;4.80;;;2.35;;
13927;SDS011;7036;50.834;4.718;2023-04-03T07:28:27;4.43;;;2.92;;
13927;SDS011;7036;50.834;4.718;2023-04-03T07:30:59;4.43;;;2.57;;
13927;SDS011;7036;50.834;4.718;2023-04-03T07:33:22;2.80;;;2.42;;
13927;SDS011;7036;50.834;4.718;2023-04-03T07:35:50;2.75;;;2.47;;
13927;SDS011;7036;50.834;4.718;2023-04-03T07:38:18;3.63;;;2.60;;
13927;SDS011;7036;50.834;4.718;2023-04-03T07:40:48;4.90;;;2.60;;
13927;SDS011;7036;50.834;4.718;2023-04-03T07:43:15;4.37;;;3.07;;
13927;SDS011;7036;50.834;4.718;2023-04-03T07:45:42;3.92;;;2.80;;
13927;SDS011;7036;50.834;4.718;2023-04-03T07:48:10;3.20;;;2.90;;
13927;SDS011;7036;50.834;4.718;2023-04-03T07:50:39;3.60;;;2.70;;
13927;SDS011;7036;50.834;4.718;2023-04-03T07:53:04;3.78;;;2.90;;
13927;SDS011;7036;50.834;4.718;2023-04-03T07:55:32;3.05;;;2.63;;
13927;SDS011;7036;50.834;4.718;2023-04-03T07:57:59;8.43;;;2.83;;
13927;SDS011;7036;50.834;4.718;2023-04-03T08:00:27;2.85;;;2.45;;
13927;SDS011;7036;50.834;4.718;2023-04-03T08:02:55;3.15;;;2.85;;
13927;SDS011;7036;50.834;4.718;2023-04-03T08:05:25;5.95;;;3.00;;
13927;SDS011;7036;50.834;4.718;2023-04-03T08:07:52;5.00;;;2.67;;
13927;SDS011;7036;50.834;4.718;2023-04-03T08:10:20;5.45;;;2.78;;
13927;SDS011;7036;50.834;4.718;2023-04-03T08:12:47;4.35;;;2.53;;
13927;SDS011;7036;50.834;4.718;2023-04-03T08:15:15;7.85;;;2.97;;
13927;SDS011;7036;50.834;4.718;2023-04-03T08:17:43;3.58;;;2.40;;
13927;SDS011;7036;50.834;4.718;2023-04-03T08:20:10;6.53;;;3.00;;
13927;SDS011;7036;50.834;4.718;2023-04-03T08:22:37;2.88;;;2.58;;
13927;SDS011;7036;50.834;4.718;2023-04-03T08:25:06;5.43;;;3.03;;
13927;SDS011;7036;50.834;4.718;2023-04-03T08:27:33;4.70;;;3.23;;
13927;SDS011;7036;50.834;4.718;2023-04-03T08:30:01;3.78;;;2.90;;
13927;SDS011;7036;50.834;4.718;2023-04-03T08:32:28;4.10;;;2.63;;
13927;SDS011;7036;50.834;4.718;2023-04-03T08:34:56;13.35;;;3.08;;
13927;SDS011;7036;50.834;4.718;2023-04-03T08:37:23;3.70;;;2.95;;
13927;SDS011;7036;50.834;4.718;2023-04-03T08:39:51;4.55;;;3.05;;
13927;SDS011;7036;50.834;4.718;2023-04-03T08:42:22;4.82;;;2.90;;
13927;SDS011;7036;50.834;4.718;2023-04-03T08:47:18;8.65;;;2.92;;
13927;SDS011;7036;50.834;4.718;2023-04-03T08:50:02;4.60;;;2.73;;
13927;SDS011;7036;50.834;4.718;2023-04-03T08:52:35;4.57;;;2.97;;
13927;SDS011;7036;50.834;4.718;2023-04-03T08:55:05;5.37;;;2.90;;
13927;SDS011;7036;50.834;4.718;2023-04-03T08:57:42;11.85;;;3.47;;
13927;SDS011;7036;50.834;4.718;2023-04-03T09:05:11;9.30;;;2.77;;
13927;SDS011;7036;50.834;4.718;2023-04-03T09:07:42;10.97;;;2.77;;
13927;SDS011;7036;50.834;4.718;2023-04-03T09:10:06;5.60;;;2.95;;
13927;SDS011;7036;50.834;4.718;2023-04-03T09:12:36;5.57;;;2.72;;
13927;SDS011;7036;50.834;4.718;2023-04-03T09:17:41;8.93;;;2.43;;
13927;SDS011;7036;50.834;4.718;2023-04-03T09:20:11;7.60;;;2.47;;
13927;SDS011;7036;50.834;4.718;2023-04-03T09:22:35;4.50;;;2.85;;
13927;SDS011;7036;50.834;4.718;2023-04-03T09:25:48;7.47;;;2.80;;
13927;SDS011;7036;50.834;4.718;2023-04-03T09:27:41;2.87;;;2.57;;
13927;SDS011;7036;50.834;4.718;2023-04-03T09:30:15;4.28;;;2.58;;
13927;SDS011;7036;50.834;4.718;2023-04-03T09:32:46;3.23;;;2.40;;
13927;SDS011;7036;50.834;4.718;2023-04-03T09:35:18;4.30;;;2.97;;
13927;SDS011;7036;50.834;4.718;2023-04-03T09:37:43;3.87;;;2.73;;
13927;SDS011;7036;50.834;4.718;2023-04-03T09:42:56;9.17;;;2.97;;
13927;SDS011;7036;50.834;4.718;2023-04-03T09:45:32;4.23;;;2.43;;
13927;SDS011;7036;50.834;4.718;2023-04-03T09:48:34;5.13;;;2.47;;
13927;SDS011;7036;50.834;4.718;2023-04-03T09:50:31;5.43;;;2.87;;
13927;SDS011;7036;50.834;4.718;2023-04-03T09:52:58;4.70;;;2.30;;
13927;SDS011;7036;50.834;4.718;2023-04-03T09:55:26;5.40;;;2.55;;
13927;SDS011;7036;50.834;4.718;2023-04-03T09:57:56;5.17;;;2.47;;
13927;SDS011;7036;50.834;4.718;2023-04-03T10:02:59;4.57;;;2.43;;
13927;SDS011;7036;50.834;4.718;2023-04-03T10:05:30;6.13;;;2.58;;
13927;SDS011;7036;50.834;4.718;2023-04-03T10:08:11;4.73;;;2.60;;
13927;SDS011;7036;50.834;4.718;2023-04-03T10:10:40;6.53;;;2.33;;
13927;SDS011;7036;50.834;4.718;2023-04-03T10:13:09;3.20;;;2.55;;
13927;SDS011;7036;50.834;4.718;2023-04-03T10:15:36;3.47;;;2.47;;
13927;SDS011;7036;50.834;4.718;2023-04-03T10:18:02;4.03;;;2.22;;
13927;SDS011;7036;50.834;4.718;2023-04-03T10:20:33;3.80;;;1.73;;
13927;SDS011;7036;50.834;4.718;2023-04-03T10:23:17;3.10;;;2.22;;
13927;SDS011;7036;50.834;4.718;2023-04-03T10:34:13;5.03;;;2.20;;
13927;SDS011;7036;50.834;4.718;2023-04-03T10:36:42;8.87;;;3.00;;
13927;SDS011;7036;50.834;4.718;2023-04-03T10:42:03;3.53;;;2.30;;
13927;SDS011;7036;50.834;4.718;2023-04-03T10:47:11;8.43;;;2.92;;
13927;SDS011;7036;50.834;4.718;2023-04-03T10:58:04;4.07;;;2.47;;
13927;SDS011;7036;50.834;4.718;2023-04-03T11:00:45;5.40;;;1.97;;
13927;SDS011;7036;50.834;4.718;2023-04-03T11:03:16;5.13;;;2.23;;
13927;SDS011;7036;50.834;4.718;2023-04-03T11:05:43;6.20;;;2.53;;
13927;SDS011;7036;50.834;4.718;2023-04-03T11:08:12;4.87;;;2.13;;
13927;SDS011;7036;50.834;4.718;2023-04-03T11:10:42;3.67;;;2.00;;
13927;SDS011;7036;50.834;4.718;2023-04-03T11:13:14;4.93;;;2.17;;
13927;SDS011;7036;50.834;4.718;2023-04-03T11:15:41;4.90;;;2.30;;
13927;SDS011;7036;50.834;4.718;2023-04-03T11:18:15;5.50;;;2.53;;
13927;SDS011;7036;50.834;4.718;2023-04-03T11:20:42;4.20;;;1.77;;
13927;SDS011;7036;50.834;4.718;2023-04-03T11:23:14;4.23;;;2.17;;
13927;SDS011;7036;50.834;4.718;2023-04-03T11:25:44;6.63;;;2.40;;
13927;SDS011;7036;50.834;4.718;2023-04-03T11:28:12;2.53;;;1.77;;
13927;SDS011;7036;50.834;4.718;2023-04-03T11:36:45;3.53;;;2.03;;
13927;SDS011;7036;50.834;4.718;2023-04-03T11:38:30;7.00;;;2.45;;
13927;SDS011;7036;50.834;4.718;2023-04-03T11:40:55;3.75;;;2.20;;
13927;SDS011;7036;50.834;4.718;2023-04-03T11:43:28;3.22;;;1.90;;
13927;SDS011;7036;50.834;4.718;2023-04-03T11:45:55;3.03;;;2.07;;
13927;SDS011;7036;50.834;4.718;2023-04-03T11:51:37;3.73;;;2.33;;
13927;SDS011;7036;50.834;4.718;2023-04-03T11:53:39;5.90;;;1.97;;
13927;SDS011;7036;50.834;4.718;2023-04-03T12:01:56;7.43;;;2.03;;
13927;SDS011;7036;50.834;4.718;2023-04-03T12:04:23;4.47;;;2.07;;
13927;SDS011;7036;50.834;4.718;2023-04-03T12:09:24;5.20;;;1.90;;
13927;SDS011;7036;50.834;4.718;2023-04-03T12:11:50;2.83;;;1.53;;
13927;SDS011;7036;50.834;4.718;2023-04-03T12:14:17;3.30;;;1.90;;
13927;SDS011;7036;50.834;4.718;2023-04-03T12:16:45;4.57;;;1.95;;
13927;SDS011;7036;50.834;4.718;2023-04-03T12:29:13;4.95;;;1.95;;
13927;SDS011;7036;50.834;4.718;2023-04-03T12:34:57;4.83;;;1.70;;
13927;SDS011;7036;50.834;4.718;2023-04-03T12:40:37;2.50;;;1.50;;
13927;SDS011;7036;50.834;4.718;2023-04-03T12:48:38;2.50;;;1.40;;
13927;SDS011;7036;50.834;4.718;2023-04-03T12:51:04;2.13;;;1.23;;
13927;SDS011;7036;50.834;4.718;2023-04-03T12:53:32;2.35;;;1.60;;
13927;SDS011;7036;50.834;4.718;2023-04-03T12:56:18;3.55;;;2.03;;
13927;SDS011;7036;50.834;4.718;2023-04-03T12:58:27;5.53;;;2.00;;
13927;SDS011;7036;50.834;4.718;2023-04-03T13:01:00;10.52;;;2.17;;
13927;SDS011;7036;50.834;4.718;2023-04-03T13:03:26;7.57;;;2.50;;
13927;SDS011;7036;50.834;4.718;2023-04-03T13:06:00;5.82;;;2.72;;
13927;SDS011;7036;50.834;4.718;2023-04-03T13:08:27;7.10;;;2.20;;
13927;SDS011;7036;50.834;4.718;2023-04-03T13:11:05;7.57;;;2.43;;
13927;SDS011;7036;50.834;4.718;2023-04-03T13:13:33;3.43;;;1.63;;
13927;SDS011;7036;50.834;4.718;2023-04-03T13:22:34;3.83;;;1.47;;
13927;SDS011;7036;50.834;4.718;2023-04-03T13:25:03;6.43;;;1.90;;
13927;SDS011;7036;50.834;4.718;2023-04-03T13:27:30;5.28;;;1.67;;
13927;SDS011;7036;50.834;4.718;2023-04-03T13:29:58;3.92;;;1.90;;
13927;SDS011;7036;50.834;4.718;2023-04-03T13:32:26;12.57;;;1.70;;
13927;SDS011;7036;50.834;4.718;2023-04-03T13:34:52;3.70;;;1.80;;
13927;SDS011;7036;50.834;4.718;2023-04-03T13:37:27;9.45;;;1.95;;
13927;SDS011;7036;50.834;4.718;2023-04-03T13:40:11;6.77;;;1.97;;
13927;SDS011;7036;50.834;4.718;2023-04-03T13:42:36;5.63;;;1.60;;
13927;SDS011;7036;50.834;4.718;2023-04-03T13:47:44;5.67;;;1.57;;
13927;SDS011;7036;50.834;4.718;2023-04-03T13:52:49;4.30;;;1.50;;
13927;SDS011;7036;50.834;4.718;2023-04-03T13:55:28;7.50;;;1.70;;
13927;SDS011;7036;50.834;4.718;2023-04-03T14:00:33;8.95;;;1.80;;
13927;SDS011;7036;50.834;4.718;2023-04-03T14:03:16;4.73;;;1.60;;
13927;SDS011;7036;50.834;4.718;2023-04-03T14:05:48;5.90;;;1.70;;
13927;SDS011;7036;50.834;4.718;2023-04-03T14:08:16;4.20;;;1.35;;
13927;SDS011;7036;50.834;4.718;2023-04-03T14:10:44;4.20;;;1.73;;
13927;SDS011;7036;50.834;4.718;2023-04-03T14:13:14;2.80;;;1.45;;
13927;SDS011;7036;50.834;4.718;2023-04-03T14:15:40;3.33;;;1.50;;
13927;SDS011;7036;50.834;4.718;2023-04-03T14:18:14;2.92;;;1.25;;
13927;SDS011;7036;50.834;4.718;2023-04-03T14:20:37;3.63;;;1.30;;
13927;SDS011;7036;50.834;4.718;2023-04-03T14:23:04;6.70;;;1.58;;
13927;SDS011;7036;50.834;4.718;2023-04-03T14:25:31;8.13;;;1.63;;
13927;SDS011;7036;50.834;4.718;2023-04-03T14:27:58;5.57;;;1.30;;
13927;SDS011;7036;50.834;4.718;2023-04-03T14:30:27;4.60;;;1.90;;
13927;SDS011;7036;50.834;4.718;2023-04-03T14:32:53;4.20;;;1.73;;
13927;SDS011;7036;50.834;4.718;2023-04-03T14:35:20;6.53;;;1.77;;
13927;SDS011;7036;50.834;4.718;2023-04-03T14:37:48;4.05;;;1.90;;
13927;SDS011;7036;50.834;4.718;2023-04-03T14:40:17;6.65;;;1.80;;
13927;SDS011;7036;50.834;4.718;2023-04-03T14:42:43;11.13;;;2.42;;
13927;SDS011;7036;50.834;4.718;2023-04-03T14:45:11;12.38;;;2.20;;
13927;SDS011;7036;50.834;4.718;2023-04-03T14:47:42;4.10;;;1.38;;
13927;SDS011;7036;50.834;4.718;2023-04-03T14:50:12;8.53;;;1.43;;
13927;SDS011;7036;50.834;4.718;2023-04-03T14:52:38;7.53;;;2.10;;
13927;SDS011;7036;50.834;4.718;2023-04-03T14:55:06;3.92;;;1.50;;
13927;SDS011;7036;50.834;4.718;2023-04-03T14:57:33;9.13;;;1.70;;
13927;SDS011;7036;50.834;4.718;2023-04-03T15:00:00;2.35;;;1.45;;
13927;SDS011;7036;50.834;4.718;2023-04-03T15:02:28;13.52;;;1.65;;
13927;SDS011;7036;50.834;4.718;2023-04-03T15:04:56;5.38;;;1.60;;
13927;SDS011;7036;50.834;4.718;2023-04-03T15:07:22;2.67;;;1.50;;
13927;SDS011;7036;50.834;4.718;2023-04-03T15:09:49;6.13;;;1.40;;
13927;SDS011;7036;50.834;4.718;2023-04-03T15:12:16;4.68;;;1.40;;
13927;SDS011;7036;50.834;4.718;2023-04-03T15:14:44;1.65;;;1.35;;
13927;SDS011;7036;50.834;4.718;2023-04-03T15:17:15;4.25;;;1.58;;
13927;SDS011;7036;50.834;4.718;2023-04-03T15:19:42;1.73;;;1.40;;
13927;SDS011;7036;50.834;4.718;2023-04-03T15:22:16;4.30;;;1.43;;
13927;SDS011;7036;50.834;4.718;2023-04-03T15:24:42;6.90;;;1.83;;
13927;SDS011;7036;50.834;4.718;2023-04-03T15:27:09;4.37;;;1.37;;
13927;SDS011;7036;50.834;4.718;2023-04-03T15:29:37;3.80;;;1.33;;
13927;SDS011;7036;50.834;4.718;2023-04-03T15:32:04;2.65;;;1.42;;
13927;SDS011;7036;50.834;4.718;2023-04-03T15:34:31;3.97;;;1.75;;
13927;SDS011;7036;50.834;4.718;2023-04-03T15:36:59;10.23;;;1.88;;
13927;SDS011;7036;50.834;4.718;2023-04-03T15:39:27;5.88;;;1.40;;
13927;SDS011;7036;50.834;4.718;2023-04-03T15:41:54;4.30;;;1.55;;
13927;SDS011;7036;50.834;4.718;2023-04-03T15:44:22;5.05;;;1.85;;
13927;SDS011;7036;50.834;4.718;2023-04-03T15:46:49;5.88;;;1.92;;
13927;SDS011;7036;50.834;4.718;2023-04-03T15:49:17;8.43;;;2.13;;
13927;SDS011;7036;50.834;4.718;2023-04-03T15:51:43;7.50;;;1.75;;
13927;SDS011;7036;50.834;4.718;2023-04-03T15:54:12;4.93;;;1.50;;
13927;SDS011;7036;50.834;4.718;2023-04-03T15:56:38;2.73;;;1.30;;
13927;SDS011;7036;50.834;4.718;2023-04-03T15:59:06;4.60;;;1.45;;
13927;SDS011;7036;50.834;4.718;2023-04-03T16:01:33;5.03;;;1.77;;
13927;SDS011;7036;50.834;4.718;2023-04-03T16:04:00;7.70;;;1.90;;
13927;SDS011;7036;50.834;4.718;2023-04-03T16:06:28;4.05;;;1.70;;
13927;SDS011;7036;50.834;4.718;2023-04-03T16:08:55;7.28;;;1.83;;
13927;SDS011;7036;50.834;4.718;2023-04-03T16:11:24;4.40;;;1.60;;
13927;SDS011;7036;50.834;4.718;2023-04-03T16:13:50;3.85;;;1.98;;
13927;SDS011;7036;50.834;4.718;2023-04-03T16:16:18;7.03;;;2.30;;
13927;SDS011;7036;50.834;4.718;2023-04-03T16:18:45;3.45;;;1.75;;
13927;SDS011;7036;50.834;4.718;2023-04-03T16:21:15;3.47;;;2.00;;
13927;SDS011;7036;50.834;4.718;2023-04-03T16:23:42;4.28;;;1.90;;
13927;SDS011;7036;50.834;4.718;2023-04-03T16:26:10;3.85;;;1.60;;
13927;SDS011;7036;50.834;4.718;2023-04-03T16:28:38;2.72;;;1.70;;
13927;SDS011;7036;50.834;4.718;2023-04-03T16:31:06;5.38;;;1.98;;
13927;SDS011;7036;50.834;4.718;2023-04-03T16:33:34;2.03;;;1.38;;
13927;SDS011;7036;50.834;4.718;2023-04-03T16:36:04;3.00;;;2.03;;
13927;SDS011;7036;50.834;4.718;2023-04-03T16:38:30;6.88;;;1.27;;
13927;SDS011;7036;50.834;4.718;2023-04-03T16:40:58;3.85;;;1.80;;